sensor_id;sensor_type;location;lat;lon;timestamp;temperature;humidity
13642;DHT22;6894;52.196;9.904;2023-04-03T00:01:18;1.60;50.70
13642;DHT22;6894;52.196;9.904;2023-04-03T00:03:45;1.60;63.10
13642;DHT22;6894;52.196;9.904;2023-04-03T00:06:12;1.60;51.90
13642;DHT22;6894;52.196;9.904;2023-04-03T00:08:40;1.60;48.70
13642;DHT22;6894;52.196;9.904;2023-04-03T00:11:07;1.60;52.30
13642;DHT22;6894;52.196;9.904;2023-04-03T00:13:37;1.60;63.80
13642;DHT22;6894;52.196;9.904;2023-04-03T00:16:05;1.60;72.80
13642;DHT22;6894;52.196;9.904;2023-04-03T00:18:32;1.60;73.00
13642;DHT22;6894;52.196;9.904;2023-04-03T00:20:58;1.70;61.40
13642;DHT22;6894;52.196;9.904;2023-04-03T00:23:25;1.60;49.40
13642;DHT22;6894;52.196;9.904;2023-04-03T00:25:53;1.60;32.70
13642;DHT22;6894;52.196;9.904;2023-04-03T00:28:19;1.60;41.00
13642;DHT22;6894;52.196;9.904;2023-04-03T00:30:48;1.60;39.10
13642;DHT22;6894;52.196;9.904;2023-04-03T00:33:15;1.60;45.30
13642;DHT22;6894;52.196;9.904;2023-04-03T00:35:42;1.50;51.10
13642;DHT22;6894;52.196;9.904;2023-04-03T00:38:09;1.40;59.10
13642;DHT22;6894;52.196;9.904;2023-04-03T00:40:38;1.40;81.70
13642;DHT22;6894;52.196;9.904;2023-04-03T00:43:11;1.40;99.90
13642;DHT22;6894;52.196;9.904;2023-04-03T00:45:40;1.50;99.90
13642;DHT22;6894;52.196;9.904;2023-04-03T00:48:12;1.30;99.90
13642;DHT22;6894;52.196;9.904;2023-04-03T00:50:41;1.20;99.90
13642;DHT22;6894;52.196;9.904;2023-04-03T00:53:11;1.20;99.90
13642;DHT22;6894;52.196;9.904;2023-04-03T00:55:39;1.10;99.90
13642;DHT22;6894;52.196;9.904;2023-04-03T00:58:07;1.00;99.90
13642;DHT22;6894;52.196;9.904;2023-04-03T01:00:36;0.90;99.90
13642;DHT22;6894;52.196;9.904;2023-04-03T01:03:03;0.80;99.90
13642;DHT22;6894;52.196;9.904;2023-04-03T01:05:32;0.80;99.90
13642;DHT22;6894;52.196;9.904;2023-04-03T01:07:59;0.80;99.90
13642;DHT22;6894;52.196;9.904;2023-04-03T01:10:26;0.70;99.90
13642;DHT22;6894;52.196;9.904;2023-04-03T01:12:53;0.70;99.90
13642;DHT22;6894;52.196;9.904;2023-04-03T01:15:22;0.60;99.90
13642;DHT22;6894;52.196;9.904;2023-04-03T01:17:51;0.60;99.90
13642;DHT22;6894;52.196;9.904;2023-04-03T01:24:08;0.50;99.90
13642;DHT22;6894;52.196;9.904;2023-04-03T01:26:38;0.50;99.90
13642;DHT22;6894;52.196;9.904;2023-04-03T01:29:05;0.50;99.90
13642;DHT22;6894;52.196;9.904;2023-04-03T01:31:44;0.50;99.90
13642;DHT22;6894;52.196;9.904;2023-04-03T01:34:11;0.40;99.90
13642;DHT22;6894;52.196;9.904;2023-04-03T01:36:38;0.40;99.90
13642;DHT22;6894;52.196;9.904;2023-04-03T01:39:05;0.40;99.90
13642;DHT22;6894;52.196;9.904;2023-04-03T01:41:32;0.30;99.90
13642;DHT22;6894;52.196;9.904;2023-04-03T01:43:59;0.30;99.90
13642;DHT22;6894;52.196;9.904;2023-04-03T01:46:26;0.40;99.90
13642;DHT22;6894;52.196;9.904;2023-04-03T01:48:54;0.30;99.90
13642;DHT22;6894;52.196;9.904;2023-04-03T01:51:21;0.30;99.90
13642;DHT22;6894;52.196;9.904;2023-04-03T01:53:48;0.20;99.90
13642;DHT22;6894;52.196;9.904;2023-04-03T01:56:14;0.20;99.90
13642;DHT22;6894;52.196;9.904;2023-04-03T01:58:41;0.20;99.90
13642;DHT22;6894;52.196;9.904;2023-04-03T02:01:08;0.20;99.90
13642;DHT22;6894;52.196;9.904;2023-04-03T02:03:35;0.10;99.90
13642;DHT22;6894;52.196;9.904;2023-04-03T02:06:03;0.20;99.90
13642;DHT22;6894;52.196;9.904;2023-04-03T02:08:30;0.20;99.90
13642;DHT22;6894;52.196;9.904;2023-04-03T02:10:57;0.20;99.90
13642;DHT22;6894;52.196;9.904;2023-04-03T02:13:24;0.20;99.90
13642;DHT22;6894;52.196;9.904;2023-04-03T02:15:50;0.20;99.90
13642;DHT22;6894;52.196;9.904;2023-04-03T02:18:17;0.20;99.90
13642;DHT22;6894;52.196;9.904;2023-04-03T02:20:46;0.20;99.90
13642;DHT22;6894;52.196;9.904;2023-04-03T02:23:14;0.20;99.90
13642;DHT22;6894;52.196;9.904;2023-04-03T02:25:41;0.20;99.90
13642;DHT22;6894;52.196;9.904;2023-04-03T02:28:07;0.10;99.90
13642;DHT22;6894;52.196;9.904;2023-04-03T02:30:34;0.20;99.90
13642;DHT22;6894;52.196;9.904;2023-04-03T02:33:01;0.20;99.90
13642;DHT22;6894;52.196;9.904;2023-04-03T02:35:29;0.10;99.90
13642;DHT22;6894;52.196;9.904;2023-04-03T02:37:56;0.10;99.90
13642;DHT22;6894;52.196;9.904;2023-04-03T02:40:24;0.10;99.90
13642;DHT22;6894;52.196;9.904;2023-04-03T02:42:50;0.00;99.90
13642;DHT22;6894;52.196;9.904;2023-04-03T02:45:17;0.00;99.90
13642;DHT22;6894;52.196;9.904;2023-04-03T02:47:44;-0.10;99.90
13642;DHT22;6894;52.196;9.904;2023-04-03T02:50:11;-0.10;99.90
13642;DHT22;6894;52.196;9.904;2023-04-03T02:52:37;-0.20;99.90
13642;DHT22;6894;52.196;9.904;2023-04-03T02:55:05;-0.10;99.90
13642;DHT22;6894;52.196;9.904;2023-04-03T02:57:33;-0.20;99.90
13642;DHT22;6894;52.196;9.904;2023-04-03T03:00:00;-0.20;99.90
13642;DHT22;6894;52.196;9.904;2023-04-03T03:02:27;-0.20;99.90
13642;DHT22;6894;52.196;9.904;2023-04-03T03:04:54;-0.20;99.90
13642;DHT22;6894;52.196;9.904;2023-04-03T03:07:21;-0.20;99.90
13642;DHT22;6894;52.196;9.904;2023-04-03T03:09:47;-0.30;99.90
13642;DHT22;6894;52.196;9.904;2023-04-03T03:12:15;-0.30;99.90
13642;DHT22;6894;52.196;9.904;2023-04-03T03:14:43;-0.30;99.90
13642;DHT22;6894;52.196;9.904;2023-04-03T03:17:09;-0.40;99.90
13642;DHT22;6894;52.196;9.904;2023-04-03T03:19:36;-0.40;99.90
13642;DHT22;6894;52.196;9.904;2023-04-03T03:22:03;-0.40;99.90
13642;DHT22;6894;52.196;9.904;2023-04-03T03:24:30;-0.50;99.90
13642;DHT22;6894;52.196;9.904;2023-04-03T03:26:56;-0.50;99.90
13642;DHT22;6894;52.196;9.904;2023-04-03T03:29:23;-0.50;99.90
13642;DHT22;6894;52.196;9.904;2023-04-03T03:31:51;-0.60;99.90
13642;DHT22;6894;52.196;9.904;2023-04-03T03:34:18;-0.70;99.90
13642;DHT22;6894;52.196;9.904;2023-04-03T03:36:45;-0.70;99.90
13642;DHT22;6894;52.196;9.904;2023-04-03T03:39:12;-0.70;99.90
13642;DHT22;6894;52.196;9.904;2023-04-03T03:41:38;-0.70;99.90
13642;DHT22;6894;52.196;9.904;2023-04-03T03:44:05;-0.70;99.90
13642;DHT22;6894;52.196;9.904;2023-04-03T03:46:32;-0.70;99.90
13642;DHT22;6894;52.196;9.904;2023-04-03T03:49:00;-0.60;99.90
13642;DHT22;6894;52.196;9.904;2023-04-03T03:51:27;-0.60;99.90
13642;DHT22;6894;52.196;9.904;2023-04-03T03:53:54;-0.80;99.90
13642;DHT22;6894;52.196;9.904;2023-04-03T03:56:21;-0.80;99.90
13642;DHT22;6894;52.196;9.904;2023-04-03T03:58:48;-0.90;99.90
13642;DHT22;6894;52.196;9.904;2023-04-03T04:01:15;-0.80;99.90
13642;DHT22;6894;52.196;9.904;2023-04-03T04:03:42;-0.90;99.90
13642;DHT22;6894;52.196;9.904;2023-04-03T04:06:10;-1.00;99.90
13642;DHT22;6894;52.196;9.904;2023-04-03T04:08:37;-2.30;99.90
13642;DHT22;6894;52.196;9.904;2023-04-03T04:11:03;-1.10;99.90
13642;DHT22;6894;52.196;9.904;2023-04-03T04:13:30;-1.00;99.90
13642;DHT22;6894;52.196;9.904;2023-04-03T04:15:57;-1.00;99.90
13642;DHT22;6894;52.196;9.904;2023-04-03T04:18:24;-1.00;99.90
13642;DHT22;6894;52.196;9.904;2023-04-03T04:20:51;-0.90;99.90
13642;DHT22;6894;52.196;9.904;2023-04-03T04:23:19;-0.90;99.90
13642;DHT22;6894;52.196;9.904;2023-04-03T04:25:46;-0.80;99.90
13642;DHT22;6894;52.196;9.904;2023-04-03T04:28:13;-0.90;99.90
13642;DHT22;6894;52.196;9.904;2023-04-03T04:30:40;-0.90;99.90
13642;DHT22;6894;52.196;9.904;2023-04-03T04:33:07;-0.80;99.90
13642;DHT22;6894;52.196;9.904;2023-04-03T04:35:34;-0.90;99.90
13642;DHT22;6894;52.196;9.904;2023-04-03T04:38:01;-0.90;99.90
13642;DHT22;6894;52.196;9.904;2023-04-03T04:40:29;-1.00;99.90
13642;DHT22;6894;52.196;9.904;2023-04-03T04:42:56;-1.00;99.90
13642;DHT22;6894;52.196;9.904;2023-04-03T04:45:23;-1.00;99.90
13642;DHT22;6894;52.196;9.904;2023-04-03T04:47:49;0.00;99.90
13642;DHT22;6894;52.196;9.904;2023-04-03T04:50:18;-1.10;99.90
13642;DHT22;6894;52.196;9.904;2023-04-03T04:52:45;-1.10;99.90
13642;DHT22;6894;52.196;9.904;2023-04-03T04:55:12;-1.10;99.90
13642;DHT22;6894;52.196;9.904;2023-04-03T04:57:40;-1.10;99.90
13642;DHT22;6894;52.196;9.904;2023-04-03T05:00:07;-1.20;99.90
13642;DHT22;6894;52.196;9.904;2023-04-03T05:02:34;-1.20;99.90
13642;DHT22;6894;52.196;9.904;2023-04-03T05:05:01;-1.20;99.90
13642;DHT22;6894;52.196;9.904;2023-04-03T05:07:28;-1.20;99.90
13642;DHT22;6894;52.196;9.904;2023-04-03T05:09:55;-1.10;99.90
13642;DHT22;6894;52.196;9.904;2023-04-03T05:12:22;-1.20;99.90
13642;DHT22;6894;52.196;9.904;2023-04-03T05:14:50;-1.10;99.90
13642;DHT22;6894;52.196;9.904;2023-04-03T05:17:17;-1.10;99.90
13642;DHT22;6894;52.196;9.904;2023-04-03T05:19:43;-0.90;99.90
13642;DHT22;6894;52.196;9.904;2023-04-03T05:22:10;-1.00;99.90
13642;DHT22;6894;52.196;9.904;2023-04-03T05:24:37;-0.80;99.90
13642;DHT22;6894;52.196;9.904;2023-04-03T05:27:04;-0.80;99.90
13642;DHT22;6894;52.196;9.904;2023-04-03T05:29:30;-0.70;99.90
13642;DHT22;6894;52.196;9.904;2023-04-03T05:31:59;-0.60;99.90
13642;DHT22;6894;52.196;9.904;2023-04-03T05:34:25;-0.60;99.90
13642;DHT22;6894;52.196;9.904;2023-04-03T05:36:53;-0.50;99.90
13642;DHT22;6894;52.196;9.904;2023-04-03T05:39:20;-0.40;99.90
13642;DHT22;6894;52.196;9.904;2023-04-03T05:41:47;-0.30;99.90
13642;DHT22;6894;52.196;9.904;2023-04-03T05:44:14;-0.20;99.90
13642;DHT22;6894;52.196;9.904;2023-04-03T05:46:41;-0.10;99.90
13642;DHT22;6894;52.196;9.904;2023-04-03T05:49:09;0.20;99.90
13642;DHT22;6894;52.196;9.904;2023-04-03T05:51:39;0.30;99.90
13642;DHT22;6894;52.196;9.904;2023-04-03T05:54:11;0.40;99.90
13642;DHT22;6894;52.196;9.904;2023-04-03T05:56:38;0.60;99.90
13642;DHT22;6894;52.196;9.904;2023-04-03T05:59:05;0.70;99.90
13642;DHT22;6894;52.196;9.904;2023-04-03T06:01:32;0.80;99.90
13642;DHT22;6894;52.196;9.904;2023-04-03T06:03:59;0.90;99.90
13642;DHT22;6894;52.196;9.904;2023-04-03T06:06:43;1.10;99.90
13642;DHT22;6894;52.196;9.904;2023-04-03T06:09:10;1.20;99.90
13642;DHT22;6894;52.196;9.904;2023-04-03T06:11:37;1.30;99.90
13642;DHT22;6894;52.196;9.904;2023-04-03T06:14:04;1.30;99.90
13642;DHT22;6894;52.196;9.904;2023-04-03T06:16:32;1.30;99.90
13642;DHT22;6894;52.196;9.904;2023-04-03T06:18:59;1.40;99.90
13642;DHT22;6894;52.196;9.904;2023-04-03T06:21:27;1.40;99.90
13642;DHT22;6894;52.196;9.904;2023-04-03T06:23:54;1.50;99.90
13642;DHT22;6894;52.196;9.904;2023-04-03T06:26:21;1.50;99.90
13642;DHT22;6894;52.196;9.904;2023-04-03T06:28:48;1.60;99.90
13642;DHT22;6894;52.196;9.904;2023-04-03T06:31:15;1.70;99.90
13642;DHT22;6894;52.196;9.904;2023-04-03T06:33:42;1.60;99.90
13642;DHT22;6894;52.196;9.904;2023-04-03T06:36:10;1.70;99.90
13642;DHT22;6894;52.196;9.904;2023-04-03T06:38:39;1.70;99.90
13642;DHT22;6894;52.196;9.904;2023-04-03T06:41:06;1.80;99.90
13642;DHT22;6894;52.196;9.904;2023-04-03T06:43:33;1.90;99.90
13642;DHT22;6894;52.196;9.904;2023-04-03T06:46:00;2.00;99.90
13642;DHT22;6894;52.196;9.904;2023-04-03T06:48:26;2.10;99.90
13642;DHT22;6894;52.196;9.904;2023-04-03T06:50:53;2.30;99.90
13642;DHT22;6894;52.196;9.904;2023-04-03T06:53:20;2.40;99.90
13642;DHT22;6894;52.196;9.904;2023-04-03T06:55:48;2.40;99.90
13642;DHT22;6894;52.196;9.904;2023-04-03T06:58:15;2.50;99.90
13642;DHT22;6894;52.196;9.904;2023-04-03T07:00:42;2.60;99.90
13642;DHT22;6894;52.196;9.904;2023-04-03T07:03:10;2.70;99.90
13642;DHT22;6894;52.196;9.904;2023-04-03T07:05:36;2.80;99.90
13642;DHT22;6894;52.196;9.904;2023-04-03T07:08:03;2.70;99.90
13642;DHT22;6894;52.196;9.904;2023-04-03T07:10:30;2.70;99.90
13642;DHT22;6894;52.196;9.904;2023-04-03T07:12:58;2.80;99.90
13642;DHT22;6894;52.196;9.904;2023-04-03T07:15:25;2.80;99.90
13642;DHT22;6894;52.196;9.904;2023-04-03T07:17:51;2.80;99.90
13642;DHT22;6894;52.196;9.904;2023-04-03T07:20:18;2.90;99.90
13642;DHT22;6894;52.196;9.904;2023-04-03T07:22:45;2.90;99.90
13642;DHT22;6894;52.196;9.904;2023-04-03T07:25:12;3.10;99.90
13642;DHT22;6894;52.196;9.904;2023-04-03T07:27:38;3.00;99.90
13642;DHT22;6894;52.196;9.904;2023-04-03T07:30:08;3.20;99.90
13642;DHT22;6894;52.196;9.904;2023-04-03T07:32:35;3.40;99.90
13642;DHT22;6894;52.196;9.904;2023-04-03T07:35:02;3.50;99.90
13642;DHT22;6894;52.196;9.904;2023-04-03T07:37:28;3.70;1.00
13642;DHT22;6894;52.196;9.904;2023-04-03T07:39:55;4.10;1.00
13642;DHT22;6894;52.196;9.904;2023-04-03T07:42:24;4.40;1.00
13642;DHT22;6894;52.196;9.904;2023-04-03T07:44:52;4.60;99.90
13642;DHT22;6894;52.196;9.904;2023-04-03T07:47:20;4.70;99.90
13642;DHT22;6894;52.196;9.904;2023-04-03T07:49:47;4.90;99.90
13642;DHT22;6894;52.196;9.904;2023-04-03T07:52:14;5.20;99.90
13642;DHT22;6894;52.196;9.904;2023-04-03T07:54:41;5.40;99.90
13642;DHT22;6894;52.196;9.904;2023-04-03T07:57:08;5.60;99.90
13642;DHT22;6894;52.196;9.904;2023-04-03T07:59:35;5.80;99.90
13642;DHT22;6894;52.196;9.904;2023-04-03T08:02:02;6.00;99.90
13642;DHT22;6894;52.196;9.904;2023-04-03T08:04:31;6.30;99.90
13642;DHT22;6894;52.196;9.904;2023-04-03T08:06:58;6.30;1.00
13642;DHT22;6894;52.196;9.904;2023-04-03T08:09:25;6.60;99.90
13642;DHT22;6894;52.196;9.904;2023-04-03T08:11:52;6.70;99.90
13642;DHT22;6894;52.196;9.904;2023-04-03T08:14:19;7.00;99.90
13642;DHT22;6894;52.196;9.904;2023-04-03T08:16:47;6.90;5.20
13642;DHT22;6894;52.196;9.904;2023-04-03T08:19:15;6.90;99.90
13642;DHT22;6894;52.196;9.904;2023-04-03T08:21:44;6.90;99.90
13642;DHT22;6894;52.196;9.904;2023-04-03T08:24:12;7.30;99.90
13642;DHT22;6894;52.196;9.904;2023-04-03T08:26:39;7.60;99.90
13642;DHT22;6894;52.196;9.904;2023-04-03T08:29:05;8.00;99.90
13642;DHT22;6894;52.196;9.904;2023-04-03T08:31:32;8.40;99.90
13642;DHT22;6894;52.196;9.904;2023-04-03T08:33:59;8.60;99.90
13642;DHT22;6894;52.196;9.904;2023-04-03T08:36:27;8.40;1.00
13642;DHT22;6894;52.196;9.904;2023-04-03T08:38:57;8.50;99.90
13642;DHT22;6894;52.196;9.904;2023-04-03T08:41:29;8.70;99.90
13642;DHT22;6894;52.196;9.904;2023-04-03T08:44:04;8.80;99.90
13642;DHT22;6894;52.196;9.904;2023-04-03T08:46:43;9.00;99.90
13642;DHT22;6894;52.196;9.904;2023-04-03T08:49:21;9.30;99.90
13642;DHT22;6894;52.196;9.904;2023-04-03T08:51:50;9.40;99.90
13642;DHT22;6894;52.196;9.904;2023-04-03T08:54:28;9.80;99.90
13642;DHT22;6894;52.196;9.904;2023-04-03T08:56:56;9.70;99.90
13642;DHT22;6894;52.196;9.904;2023-04-03T08:59:27;9.50;99.90
13642;DHT22;6894;52.196;9.904;2023-04-03T09:01:56;9.50;99.90
13642;DHT22;6894;52.196;9.904;2023-04-03T09:04:26;9.70;99.90
13642;DHT22;6894;52.196;9.904;2023-04-03T09:06:57;9.70;99.90
13642;DHT22;6894;52.196;9.904;2023-04-03T09:09:35;9.60;99.90
13642;DHT22;6894;52.196;9.904;2023-04-03T09:12:13;9.70;99.90
13642;DHT22;6894;52.196;9.904;2023-04-03T09:14:47;9.60;99.90
13642;DHT22;6894;52.196;9.904;2023-04-03T09:17:21;9.40;99.90
13642;DHT22;6894;52.196;9.904;2023-04-03T09:19:56;9.30;99.90
13642;DHT22;6894;52.196;9.904;2023-04-03T09:22:27;9.00;99.90
13642;DHT22;6894;52.196;9.904;2023-04-03T09:24:59;8.80;99.90
13642;DHT22;6894;52.196;9.904;2023-04-03T09:27:28;8.40;99.90
13642;DHT22;6894;52.196;9.904;2023-04-03T09:29:56;7.90;99.90
13642;DHT22;6894;52.196;9.904;2023-04-03T09:32:27;7.60;99.90
13642;DHT22;6894;52.196;9.904;2023-04-03T09:34:57;7.30;99.90
13642;DHT22;6894;52.196;9.904;2023-04-03T09:37:39;7.20;99.90
13642;DHT22;6894;52.196;9.904;2023-04-03T09:40:29;7.60;99.90
13642;DHT22;6894;52.196;9.904;2023-04-03T09:42:57;8.10;99.90
13642;DHT22;6894;52.196;9.904;2023-04-03T09:45:26;8.60;99.90
13642;DHT22;6894;52.196;9.904;2023-04-03T09:48:05;8.90;99.90
13642;DHT22;6894;52.196;9.904;2023-04-03T09:50:33;9.50;99.90
13642;DHT22;6894;52.196;9.904;2023-04-03T09:55:43;9.40;99.90
13642;DHT22;6894;52.196;9.904;2023-04-03T09:58:25;9.60;1.00
13642;DHT22;6894;52.196;9.904;2023-04-03T10:00:55;9.90;99.90
13642;DHT22;6894;52.196;9.904;2023-04-03T10:03:25;10.30;99.90
13642;DHT22;6894;52.196;9.904;2023-04-03T10:05:52;10.60;99.90
13642;DHT22;6894;52.196;9.904;2023-04-03T10:08:23;10.60;1.00
13642;DHT22;6894;52.196;9.904;2023-04-03T10:13:57;10.40;1.00
13642;DHT22;6894;52.196;9.904;2023-04-03T10:16:29;10.60;99.90
13642;DHT22;6894;52.196;9.904;2023-04-03T10:19:10;10.90;99.90
13642;DHT22;6894;52.196;9.904;2023-04-03T10:21:44;10.70;1.00
13642;DHT22;6894;52.196;9.904;2023-04-03T10:24:16;10.40;1.00
13642;DHT22;6894;52.196;9.904;2023-04-03T10:26:54;10.20;1.00
13642;DHT22;6894;52.196;9.904;2023-04-03T10:29:36;9.60;99.90
13642;DHT22;6894;52.196;9.904;2023-04-03T10:32:16;9.00;99.90
13642;DHT22;6894;52.196;9.904;2023-04-03T10:34:46;8.60;99.90
13642;DHT22;6894;52.196;9.904;2023-04-03T10:37:20;8.30;99.90
13642;DHT22;6894;52.196;9.904;2023-04-03T10:39:52;8.10;99.90
13642;DHT22;6894;52.196;9.904;2023-04-03T10:42:27;8.20;99.90
13642;DHT22;6894;52.196;9.904;2023-04-03T10:45:15;8.70;99.90
13642;DHT22;6894;52.196;9.904;2023-04-03T10:47:50;9.30;99.90
13642;DHT22;6894;52.196;9.904;2023-04-03T10:50:29;9.90;99.90
13642;DHT22;6894;52.196;9.904;2023-04-03T10:53:03;10.30;99.90
13642;DHT22;6894;52.196;9.904;2023-04-03T10:55:36;10.60;1.00
13642;DHT22;6894;52.196;9.904;2023-04-03T10:58:05;10.90;99.90
13642;DHT22;6894;52.196;9.904;2023-04-03T11:00:39;11.00;99.90
13642;DHT22;6894;52.196;9.904;2023-04-03T11:03:11;11.00;99.90
13642;DHT22;6894;52.196;9.904;2023-04-03T11:05:42;11.20;1.00
13642;DHT22;6894;52.196;9.904;2023-04-03T11:08:15;11.10;1.00
13642;DHT22;6894;52.196;9.904;2023-04-03T11:10:46;10.30;99.90
13642;DHT22;6894;52.196;9.904;2023-04-03T11:13:17;10.30;99.90
13642;DHT22;6894;52.196;9.904;2023-04-03T11:15:47;10.30;99.90
13642;DHT22;6894;52.196;9.904;2023-04-03T11:18:18;10.20;99.90
13642;DHT22;6894;52.196;9.904;2023-04-03T11:20:50;9.70;99.90
13642;DHT22;6894;52.196;9.904;2023-04-03T11:23:24;9.30;99.90
13642;DHT22;6894;52.196;9.904;2023-04-03T11:25:54;8.80;99.90
13642;DHT22;6894;52.196;9.904;2023-04-03T11:28:22;8.60;99.90
13642;DHT22;6894;52.196;9.904;2023-04-03T11:30:58;8.60;99.90
13642;DHT22;6894;52.196;9.904;2023-04-03T11:33:36;8.70;99.90
13642;DHT22;6894;52.196;9.904;2023-04-03T11:36:07;9.10;99.90
13642;DHT22;6894;52.196;9.904;2023-04-03T11:38:37;9.20;99.90
13642;DHT22;6894;52.196;9.904;2023-04-03T11:41:07;9.10;99.90
13642;DHT22;6894;52.196;9.904;2023-04-03T11:43:40;9.10;99.90
13642;DHT22;6894;52.196;9.904;2023-04-03T11:46:09;9.10;99.90
13642;DHT22;6894;52.196;9.904;2023-04-03T11:48:49;9.00;99.90
13642;DHT22;6894;52.196;9.904;2023-04-03T11:54:42;8.60;99.90
13642;DHT22;6894;52.196;9.904;2023-04-03T12:00:47;8.50;99.90
13642;DHT22;6894;52.196;9.904;2023-04-03T12:09:29;9.30;99.90
13642;DHT22;6894;52.196;9.904;2023-04-03T12:12:00;9.00;60.80
13642;DHT22;6894;52.196;9.904;2023-04-03T12:14:28;8.90;99.90
13642;DHT22;6894;52.196;9.904;2023-04-03T12:16:56;8.70;99.90
13642;DHT22;6894;52.196;9.904;2023-04-03T12:19:35;8.30;99.90
13642;DHT22;6894;52.196;9.904;2023-04-03T12:22:14;8.20;99.90
13642;DHT22;6894;52.196;9.904;2023-04-03T12:24:43;8.30;99.90
13642;DHT22;6894;52.196;9.904;2023-04-03T12:27:21;8.90;99.90
13642;DHT22;6894;52.196;9.904;2023-04-03T12:29:53;9.10;99.90
13642;DHT22;6894;52.196;9.904;2023-04-03T12:32:31;9.20;99.90
13642;DHT22;6894;52.196;9.904;2023-04-03T12:35:20;9.10;99.90
13642;DHT22;6894;52.196;9.904;2023-04-03T12:38:13;8.80;1.00
13642;DHT22;6894;52.196;9.904;2023-04-03T12:40:45;9.30;99.90
13642;DHT22;6894;52.196;9.904;2023-04-03T12:43:24;9.70;43.30
13642;DHT22;6894;52.196;9.904;2023-04-03T12:45:59;10.30;1.00
13642;DHT22;6894;52.196;9.904;2023-04-03T12:48:30;10.80;99.90
13642;DHT22;6894;52.196;9.904;2023-04-03T12:51:00;11.50;1.00
13642;DHT22;6894;52.196;9.904;2023-04-03T12:53:28;11.70;1.00
13642;DHT22;6894;52.196;9.904;2023-04-03T12:55:57;11.70;1.00
13642;DHT22;6894;52.196;9.904;2023-04-03T12:58:26;11.30;1.00
13642;DHT22;6894;52.196;9.904;2023-04-03T13:01:01;11.00;1.00
13642;DHT22;6894;52.196;9.904;2023-04-03T13:03:29;10.50;1.00
13642;DHT22;6894;52.196;9.904;2023-04-03T13:06:01;10.10;99.90
13642;DHT22;6894;52.196;9.904;2023-04-03T13:08:29;10.40;99.90
13642;DHT22;6894;52.196;9.904;2023-04-03T13:11:00;11.00;99.90
13642;DHT22;6894;52.196;9.904;2023-04-03T13:13:28;11.60;99.90
13642;DHT22;6894;52.196;9.904;2023-04-03T13:15:55;11.70;99.90
13642;DHT22;6894;52.196;9.904;2023-04-03T13:18:30;11.20;99.90
13642;DHT22;6894;52.196;9.904;2023-04-03T13:21:03;10.80;1.00
13642;DHT22;6894;52.196;9.904;2023-04-03T13:23:32;11.00;99.90
13642;DHT22;6894;52.196;9.904;2023-04-03T13:26:00;11.50;99.90
13642;DHT22;6894;52.196;9.904;2023-04-03T13:28:30;11.70;99.90
13642;DHT22;6894;52.196;9.904;2023-04-03T13:31:01;11.60;99.90
13642;DHT22;6894;52.196;9.904;2023-04-03T13:33:32;11.70;99.90
13642;DHT22;6894;52.196;9.904;2023-04-03T13:36:06;11.70;99.90
13642;DHT22;6894;52.196;9.904;2023-04-03T13:38:34;11.60;99.90
13642;DHT22;6894;52.196;9.904;2023-04-03T13:41:04;10.80;99.90
13642;DHT22;6894;52.196;9.904;2023-04-03T13:43:35;10.50;96.90
13642;DHT22;6894;52.196;9.904;2023-04-03T13:46:20;10.20;99.90
13642;DHT22;6894;52.196;9.904;2023-04-03T13:48:49;10.20;99.90
13642;DHT22;6894;52.196;9.904;2023-04-03T13:51:23;10.20;99.90
13642;DHT22;6894;52.196;9.904;2023-04-03T13:53:53;10.20;99.90
13642;DHT22;6894;52.196;9.904;2023-04-03T13:56:25;10.20;99.90
13642;DHT22;6894;52.196;9.904;2023-04-03T13:58:55;9.90;99.90
13642;DHT22;6894;52.196;9.904;2023-04-03T14:01:23;9.80;99.90
13642;DHT22;6894;52.196;9.904;2023-04-03T14:03:54;9.80;99.90
13642;DHT22;6894;52.196;9.904;2023-04-03T14:06:23;10.00;99.90
13642;DHT22;6894;52.196;9.904;2023-04-03T14:08:51;10.40;99.90
13642;DHT22;6894;52.196;9.904;2023-04-03T14:11:21;10.60;99.90
13642;DHT22;6894;52.196;9.904;2023-04-03T14:13:49;10.70;99.90
13642;DHT22;6894;52.196;9.904;2023-04-03T14:16:21;10.90;99.90
13642;DHT22;6894;52.196;9.904;2023-04-03T14:18:49;11.10;99.90
13642;DHT22;6894;52.196;9.904;2023-04-03T14:21:18;11.10;99.90
13642;DHT22;6894;52.196;9.904;2023-04-03T14:23:46;10.90;99.90
13642;DHT22;6894;52.196;9.904;2023-04-03T14:26:16;10.90;99.90
13642;DHT22;6894;52.196;9.904;2023-04-03T14:28:43;11.10;99.90
13642;DHT22;6894;52.196;9.904;2023-04-03T14:31:11;10.80;99.90
13642;DHT22;6894;52.196;9.904;2023-04-03T14:33:38;10.40;99.90
13642;DHT22;6894;52.196;9.904;2023-04-03T14:36:12;10.00;99.90
13642;DHT22;6894;52.196;9.904;2023-04-03T14:38:39;9.80;99.90
13642;DHT22;6894;52.196;9.904;2023-04-03T14:41:09;9.70;99.90
13642;DHT22;6894;52.196;9.904;2023-04-03T14:43:37;9.60;99.90
13642;DHT22;6894;52.196;9.904;2023-04-03T14:46:04;9.40;99.90
13642;DHT22;6894;52.196;9.904;2023-04-03T14:48:32;9.10;99.90
13642;DHT22;6894;52.196;9.904;2023-04-03T14:50:58;9.00;99.90
13642;DHT22;6894;52.196;9.904;2023-04-03T14:53:25;9.10;99.90
13642;DHT22;6894;52.196;9.904;2023-04-03T14:55:55;9.80;99.90
13642;DHT22;6894;52.196;9.904;2023-04-03T14:58:23;10.50;99.90
13642;DHT22;6894;52.196;9.904;2023-04-03T15:00:49;10.70;99.90
13642;DHT22;6894;52.196;9.904;2023-04-03T15:03:18;11.20;99.90
13642;DHT22;6894;52.196;9.904;2023-04-03T15:05:47;11.00;99.90
13642;DHT22;6894;52.196;9.904;2023-04-03T15:08:19;10.50;99.90
13642;DHT22;6894;52.196;9.904;2023-04-03T15:10:47;10.00;99.90
13642;DHT22;6894;52.196;9.904;2023-04-03T15:13:14;10.20;99.90
13642;DHT22;6894;52.196;9.904;2023-04-03T15:15:42;10.30;99.90
13642;DHT22;6894;52.196;9.904;2023-04-03T15:18:17;10.40;99.90
13642;DHT22;6894;52.196;9.904;2023-04-03T15:20:45;10.40;99.90
13642;DHT22;6894;52.196;9.904;2023-04-03T15:23:13;10.50;99.90
13642;DHT22;6894;52.196;9.904;2023-04-03T15:25:41;10.60;99.90
13642;DHT22;6894;52.196;9.904;2023-04-03T15:28:09;10.70;99.90
13642;DHT22;6894;52.196;9.904;2023-04-03T15:30:39;10.60;99.90
13642;DHT22;6894;52.196;9.904;2023-04-03T15:33:07;10.70;99.90
13642;DHT22;6894;52.196;9.904;2023-04-03T15:35:34;10.50;99.90
13642;DHT22;6894;52.196;9.904;2023-04-03T15:38:01;10.30;99.90
13642;DHT22;6894;52.196;9.904;2023-04-03T15:40:28;10.40;99.90
13642;DHT22;6894;52.196;9.904;2023-04-03T15:42:55;10.60;99.90
13642;DHT22;6894;52.196;9.904;2023-04-03T15:45:21;10.50;99.90
13642;DHT22;6894;52.196;9.904;2023-04-03T15:47:48;10.80;99.90
13642;DHT22;6894;52.196;9.904;2023-04-03T15:50:17;10.80;99.90
13642;DHT22;6894;52.196;9.904;2023-04-03T15:52:43;10.50;99.90
13642;DHT22;6894;52.196;9.904;2023-04-03T15:55:10;10.00;99.90
13642;DHT22;6894;52.196;9.904;2023-04-03T15:57:37;9.60;99.90
13642;DHT22;6894;52.196;9.904;2023-04-03T16:00:05;9.60;99.90
13642;DHT22;6894;52.196;9.904;2023-04-03T16:02:32;9.40;99.90
13642;DHT22;6894;52.196;9.904;2023-04-03T16:05:00;9.40;99.90
13642;DHT22;6894;52.196;9.904;2023-04-03T16:07:28;9.40;99.90
13642;DHT22;6894;52.196;9.904;2023-04-03T16:09:54;9.30;99.90
13642;DHT22;6894;52.196;9.904;2023-04-03T16:12:21;9.20;99.90
13642;DHT22;6894;52.196;9.904;2023-04-03T16:14:48;9.20;99.90
13642;DHT22;6894;52.196;9.904;2023-04-03T16:17:15;9.10;99.90
13642;DHT22;6894;52.196;9.904;2023-04-03T16:19:42;8.90;99.90
13642;DHT22;6894;52.196;9.904;2023-04-03T16:22:08;8.90;99.90
13642;DHT22;6894;52.196;9.904;2023-04-03T16:24:37;8.60;99.90
13642;DHT22;6894;52.196;9.904;2023-04-03T16:27:04;8.50;99.90
13642;DHT22;6894;52.196;9.904;2023-04-03T16:29:30;8.30;99.90
13642;DHT22;6894;52.196;9.904;2023-04-03T16:31:58;8.20;99.90